Time;durP1;ratioP1;P1;durP2;ratioP2;P2;SDS_P1;SDS_P2;PMS_P1;PMS_P2;Temp;Humidity;BMP_temperature;BMP_pressure;BME280_temperature;BME280_humidity;BME280_pressure;Samples;Min_cycle;Max_cycle;Signal;HPM_P1;HPM_P2
2022/01/01 00:00:33;;;;;;;45.05;32.42;;;;;;;11.89;98.02;102230.63;5074029;28;20032;-75
2022/01/01 00:02:59;;;;;;;46.42;34.65;;;;;;;11.91;98.11;102234.81;5079680;28;20471;-75
2022/01/01 00:05:25;;;;;;;47.55;31.88;;;;;;;11.91;98.07;102231.31;5090981;28;20063;-75
2022/01/01 00:07:51;;;;;;;45.42;28.50;;;;;;;11.92;98.15;102236.50;5089458;28;20051;-76
2022/01/01 00:10:18;;;;;;;38.80;24.88;;;;;;;11.92;98.06;102244.50;5076834;28;20050;-74
2022/01/01 00:12:43;;;;;;;43.78;26.35;;;;;;;11.90;98.22;102243.84;5081041;28;20028;-75
2022/01/01 00:15:08;;;;;;;46.15;26.73;;;;;;;11.93;98.28;102246.16;5088602;28;20093;-75
2022/01/01 00:17:34;;;;;;;34.55;22.60;;;;;;;11.92;98.76;102236.50;5079437;28;20119;-75
2022/01/01 00:19:59;;;;;;;41.08;23.45;;;;;;;11.92;98.40;102236.50;5072311;28;20028;-75
2022/01/01 00:22:25;;;;;;;38.17;23.75;;;;;;;11.87;98.33;102228.16;5072198;28;20495;-73
2022/01/01 00:24:50;;;;;;;34.20;17.45;;;;;;;11.93;98.57;102231.97;5091233;28;20456;-73
2022/01/01 00:27:15;;;;;;;26.88;16.33;;;;;;;11.88;98.43;102240.50;5085147;28;20060;-73
2022/01/01 00:29:41;;;;;;;32.88;15.88;;;;;;;11.93;98.66;102251.50;5080141;28;20040;-73
2022/01/01 00:32:06;;;;;;;25.88;12.93;;;;;;;11.96;98.70;102256.50;5090778;28;20036;-72
2022/01/01 00:34:34;;;;;;;25.08;11.77;;;;;;;11.97;98.38;102260.03;5090956;28;20032;-72
2022/01/01 00:36:59;;;;;;;27.08;12.55;;;;;;;11.97;98.58;102250.19;5090956;28;20043;-73
2022/01/01 00:39:25;;;;;;;29.17;13.20;;;;;;;11.99;98.51;102247.31;5091154;28;20036;-73
2022/01/01 00:41:50;;;;;;;28.65;13.13;;;;;;;11.99;98.36;102245.47;5091558;28;20028;-73
2022/01/01 00:44:15;;;;;;;23.60;12.70;;;;;;;12.00;98.37;102239.13;5090498;28;20061;-72
2022/01/01 00:46:41;;;;;;;29.70;12.48;;;;;;;12.00;98.44;102243.66;5089765;28;20067;-73
2022/01/01 00:49:06;;;;;;;30.92;13.90;;;;;;;11.97;98.25;102227.94;5083705;28;20044;-71
2022/01/01 00:51:32;;;;;;;26.00;13.65;;;;;;;11.99;98.30;102228.59;5080570;28;20025;-71
2022/01/01 00:53:57;;;;;;;24.20;9.95;;;;;;;12.03;98.20;102238.78;5082046;28;20077;-71
2022/01/01 00:56:23;;;;;;;28.10;11.32;;;;;;;12.04;98.19;102239.63;5090921;28;20028;-74
2022/01/01 00:58:48;;;;;;;52.17;11.38;;;;;;;12.05;97.97;102241.28;5075975;28;20081;-71
2022/01/01 01:01:13;;;;;;;24.77;9.38;;;;;;;12.03;97.86;102236.13;5071471;28;20036;-71
2022/01/01 01:03:39;;;;;;;24.63;11.35;;;;;;;12.02;97.66;102242.44;5081895;28;20042;-71
2022/01/01 01:06:04;;;;;;;25.67;10.45;;;;;;;12.03;97.67;102244.13;5072846;28;20502;-71
2022/01/01 01:08:30;;;;;;;24.05;10.50;;;;;;;12.03;97.84;102246.81;5082817;28;20028;-71
2022/01/01 01:10:57;;;;;;;27.15;11.68;;;;;;;12.01;97.96;102239.97;5074994;28;20036;-71
2022/01/01 01:13:24;;;;;;;25.20;11.15;;;;;;;12.03;97.82;102248.66;5070530;28;20115;-71
2022/01/01 01:15:50;;;;;;;19.42;10.02;;;;;;;12.04;97.72;102243.13;5071015;28;20036;-71
2022/01/01 01:18:15;;;;;;;34.50;10.93;;;;;;;12.04;97.82;102255.66;5071095;28;20384;-71
2022/01/01 01:20:40;;;;;;;20.20;8.88;;;;;;;12.05;97.67;102247.47;5070919;28;20070;-71
2022/01/01 01:23:06;;;;;;;27.42;11.70;;;;;;;12.04;97.68;102253.00;5070893;28;20035;-71
2022/01/01 01:25:39;;;;;;;23.35;11.43;;;;;;;12.04;97.52;102250.31;5069860;28;20532;-71
2022/01/01 01:28:08;;;;;;;26.67;11.48;;;;;;;12.03;97.50;102264.69;5070966;28;20032;-71
2022/01/01 01:30:35;;;;;;;24.10;10.73;;;;;;;12.01;97.50;102264.88;5070933;28;20054;-71
2022/01/01 01:33:00;;;;;;;22.38;9.05;;;;;;;12.03;97.51;102262.03;5070898;28;20101;-71
2022/01/01 01:35:26;;;;;;;23.98;11.20;;;;;;;12.00;97.53;102265.06;5090111;28;20439;-71
2022/01/01 01:37:51;;;;;;;25.38;9.18;;;;;;;11.98;97.44;102264.38;5089760;28;20024;-72
2022/01/01 01:40:16;;;;;;;24.13;12.27;;;;;;;11.97;97.55;102266.22;5090146;28;20032;-71
2022/01/01 01:42:44;;;;;;;66.35;42.13;;;;;;;12.00;97.57;102270.41;5076892;28;20400;-71
2022/01/01 01:45:15;;;;;;;35.85;20.95;;;;;;;11.98;97.35;102262.53;5070551;28;20182;-71
2022/01/01 01:47:41;;;;;;;34.38;13.02;;;;;;;11.98;97.54;102269.72;5070447;28;20027;-71
2022/01/01 01:50:09;;;;;;;22.27;11.20;;;;;;;11.96;97.57;102269.88;5078156;28;20356;-71
2022/01/01 01:52:36;;;;;;;36.72;11.70;;;;;;;11.96;97.59;102283.25;5089785;28;20126;-71
2022/01/01 01:55:05;;;;;;;25.50;11.77;;;;;;;11.96;97.75;102280.59;5089869;28;20036;-71
2022/01/01 01:57:31;;;;;;;24.70;10.43;;;;;;;11.95;97.75;102284.28;5089721;28;20026;-71
2022/01/01 01:59:56;;;;;;;21.95;9.68;;;;;;;11.95;97.83;102291.47;5089718;28;20055;-71
2022/01/01 02:02:22;;;;;;;20.45;9.57;;;;;;;11.94;98.03;102284.44;5089301;28;20607;-71
2022/01/01 02:04:48;;;;;;;23.42;10.43;;;;;;;11.94;97.95;102293.28;5089756;28;20032;-71
2022/01/01 02:07:13;;;;;;;22.45;9.35;;;;;;;11.92;98.32;102292.63;5089681;28;20039;-71
2022/01/01 02:09:39;;;;;;;23.58;10.18;;;;;;;11.92;98.34;102289.97;5089450;28;20032;-71
2022/01/01 02:12:08;;;;;;;21.33;9.38;;;;;;;11.91;98.57;102287.44;5088896;28;20028;-71
2022/01/01 02:17:15;;;;;;;24.45;9.30;;;;;;;11.91;98.73;102284.78;5089786;28;20042;-71
2022/01/01 02:19:52;;;;;;;27.10;10.07;;;;;;;11.91;98.94;102287.44;5089472;28;20020;-71
2022/01/01 02:22:18;;;;;;;17.63;8.68;;;;;;;11.88;98.77;102280.59;5069978;28;20036;-71
2022/01/01 02:24:43;;;;;;;23.55;8.77;;;;;;;11.89;98.89;102268.91;5068422;28;20499;-71
2022/01/01 02:27:08;;;;;;;26.77;10.05;;;;;;;11.90;99.15;102275.94;5069944;28;20057;-71
2022/01/01 02:29:34;;;;;;;26.67;10.70;;;;;;;11.86;99.11;102269.25;5069853;28;20456;-71
2022/01/01 02:32:00;;;;;;;22.58;8.32;;;;;;;11.89;99.28;102265.38;5087231;28;20032;-71
2022/01/01 02:34:25;;;;;;;22.33;8.18;;;;;;;11.89;99.36;102262.72;5088879;28;20043;-71
2022/01/01 02:36:51;;;;;;;23.30;7.80;;;;;;;11.88;99.34;102264.56;5088949;28;20063;-71
2022/01/01 02:39:21;;;;;;;23.88;8.57;;;;;;;11.89;99.41;102270.72;5088100;28;20043;-71
2022/01/01 02:41:48;;;;;;;19.83;10.05;;;;;;;11.90;99.64;102275.94;5089213;28;20043;-71
2022/01/01 02:44:14;;;;;;;19.08;9.10;;;;;;;11.90;99.44;102273.25;5089044;28;20107;-71
2022/01/01 02:46:40;;;;;;;25.95;10.00;;;;;;;11.89;99.48;102274.25;5089229;28;20111;-72
2022/01/01 02:49:05;;;;;;;22.98;8.52;;;;;;;11.92;99.51;102276.59;5089126;28;20468;-71
2022/01/01 02:51:31;;;;;;;19.83;7.30;;;;;;;11.92;99.35;102273.94;5089009;28;20036;-71
2022/01/01 02:53:56;;;;;;;20.85;9.02;;;;;;;11.90;99.60;102269.75;5089096;28;20116;-71
2022/01/01 02:56:22;;;;;;;23.65;9.88;;;;;;;11.93;99.53;102272.06;5089112;28;20031;-71
2022/01/01 02:58:48;;;;;;;28.75;10.07;;;;;;;11.93;99.30;102272.91;5089367;28;20530;-71
2022/01/01 03:01:13;;;;;;;21.65;9.10;;;;;;;11.94;99.52;102260.38;5089086;28;20379;-71
2022/01/01 03:03:38;;;;;;;22.02;9.45;;;;;;;11.92;99.42;102260.56;5088990;28;20065;-71
2022/01/01 03:06:04;;;;;;;19.05;8.18;;;;;;;11.91;99.69;102250.03;5087222;28;20039;-71
2022/01/01 03:08:30;;;;;;;22.75;8.63;;;;;;;11.91;99.33;102247.34;5088970;28;20169;-71
2022/01/01 03:10:56;;;;;;;23.67;10.07;;;;;;;11.91;99.43;102247.34;5088989;28;20024;-71
2022/01/01 03:13:21;;;;;;;26.88;9.18;;;;;;;11.92;99.36;102244.50;5088651;28;20031;-71
2022/01/01 03:15:47;;;;;;;19.38;8.07;;;;;;;11.93;99.23;102250.69;5088686;28;20031;-71
2022/01/01 03:18:12;;;;;;;21.77;9.15;;;;;;;11.94;99.07;102247.81;5088735;28;20055;-71
2022/01/01 03:20:37;;;;;;;19.77;9.18;;;;;;;11.94;99.09;102255.03;5088797;28;20043;-71
2022/01/01 03:23:03;;;;;;;20.17;9.75;;;;;;;11.95;98.94;102256.72;5088729;28;20050;-71
2022/01/01 03:25:30;;;;;;;21.77;8.98;;;;;;;11.94;98.93;102250.50;5087315;28;20060;-71
2022/01/01 03:27:55;;;;;;;20.20;8.43;;;;;;;11.95;98.84;102254.03;5069391;28;20058;-71
2022/01/01 03:30:21;;;;;;;19.77;9.95;;;;;;;11.96;98.83;102250.34;5076197;28;20036;-71
2022/01/01 03:32:47;;;;;;;21.45;9.48;;;;;;;11.96;98.69;102245.00;5088905;28;20036;-71
2022/01/01 03:35:12;;;;;;;24.00;8.88;;;;;;;11.96;98.63;102245.81;5088540;28;20107;-71
2022/01/01 03:37:37;;;;;;;22.13;10.88;;;;;;;11.96;98.76;102248.50;5088246;28;20036;-71
2022/01/01 03:40:04;;;;;;;19.83;8.60;;;;;;;11.97;98.63;102241.31;5087460;28;20440;-71
2022/01/01 03:42:30;;;;;;;17.45;8.38;;;;;;;11.97;98.53;102241.31;5088584;28;20032;-71
2022/01/01 03:44:56;;;;;;;18.58;9.77;;;;;;;11.98;98.49;102234.97;5088566;28;20114;-71
2022/01/01 03:47:21;;;;;;;21.98;9.82;;;;;;;11.98;98.47;102243.00;5088691;28;20166;-71
2022/01/01 03:49:47;;;;;;;17.63;8.90;;;;;;;11.97;98.71;102234.13;5074603;28;20057;-71
2022/01/01 03:52:12;;;;;;;18.15;8.98;;;;;;;11.98;98.47;102238.47;5072655;28;20481;-71
2022/01/01 03:54:38;;;;;;;26.63;7.82;;;;;;;11.96;98.44;102228.94;5080297;28;20036;-71
2022/01/01 03:57:03;;;;;;;21.20;9.73;;;;;;;11.97;98.15;102230.59;5072632;28;20073;-71
2022/01/01 03:59:29;;;;;;;15.35;8.00;;;;;;;11.97;98.38;102234.13;5072689;28;20123;-71
2022/01/01 04:01:55;;;;;;;16.70;8.07;;;;;;;11.97;98.22;102228.78;5072534;28;20074;-71
2022/01/01 04:04:22;;;;;;;20.38;7.88;;;;;;;11.96;98.11;102229.78;5072377;28;20530;-71
2022/01/01 04:06:48;;;;;;;21.67;9.43;;;;;;;11.96;98.13;102236.97;5091648;28;20036;-71
2022/01/01 04:09:14;;;;;;;20.48;9.00;;;;;;;11.97;98.20;102238.63;5091335;28;20108;-71
2022/01/01 04:11:40;;;;;;;22.15;8.95;;;;;;;11.97;97.93;102227.94;5090393;28;20024;-71
2022/01/01 04:14:05;;;;;;;18.42;6.60;;;;;;;11.96;97.93;102226.28;5091678;28;20101;-71
2022/01/01 04:16:31;;;;;;;20.77;7.93;;;;;;;11.97;98.02;102235.97;5086765;28;20028;-71
2022/01/01 04:18:56;;;;;;;19.00;7.60;;;;;;;11.97;97.75;102233.28;5072171;28;20028;-71
2022/01/01 04:21:22;;;;;;;17.95;7.68;;;;;;;11.96;97.86;102235.13;5072240;28;20040;-71
2022/01/01 04:23:47;;;;;;;13.60;7.57;;;;;;;11.96;97.56;102232.44;5072158;28;20040;-71
2022/01/01 04:26:12;;;;;;;19.95;7.68;;;;;;;11.98;97.63;102246.50;5071977;28;20049;-71
2022/01/01 04:28:40;;;;;;;18.25;7.15;;;;;;;11.97;97.28;102234.13;5072170;28;20520;-71
2022/01/01 04:31:05;;;;;;;17.50;6.75;;;;;;;11.95;97.56;102228.13;5091163;28;20038;-71
2022/01/01 04:33:31;;;;;;;18.90;7.63;;;;;;;11.93;97.24;102230.13;5091279;28;20024;-71
2022/01/01 04:35:57;;;;;;;14.05;6.47;;;;;;;11.94;97.26;102228.28;5091223;28;20081;-71
2022/01/01 04:38:40;;;;;;;17.23;6.90;;;;;;;11.90;97.33;102225.13;5071732;28;20450;-71
2022/01/01 04:41:11;;;;;;;15.38;6.75;;;;;;;11.91;97.39;102228.63;5077176;28;20436;-71
2022/01/01 04:43:37;;;;;;;17.38;7.07;;;;;;;11.94;97.19;102239.81;5091187;28;20032;-71
2022/01/01 04:46:03;;;;;;;13.45;5.90;;;;;;;11.92;97.16;102233.81;5091110;28;20039;-71
2022/01/01 04:48:28;;;;;;;17.88;7.50;;;;;;;11.93;97.07;102230.13;5091142;28;20024;-71
2022/01/01 04:50:54;;;;;;;21.60;8.85;;;;;;;11.93;97.13;102238.16;5090975;28;20028;-71
2022/01/01 04:53:19;;;;;;;19.02;6.68;;;;;;;11.93;96.87;102237.31;5091197;28;20032;-71
2022/01/01 04:55:48;;;;;;;16.70;5.97;;;;;;;11.94;96.87;102238.97;5090587;28;20028;-71
2022/01/01 04:58:14;;;;;;;21.60;7.57;;;;;;;11.93;97.03;102246.16;5085022;28;20025;-71
2022/01/01 05:00:40;;;;;;;12.07;6.78;;;;;;;11.94;96.79;102249.66;5070134;28;20071;-70
2022/01/01 05:03:05;;;;;;;16.73;7.22;;;;;;;11.90;96.92;102243.00;5071554;28;20941;-71
2022/01/01 05:05:31;;;;;;;13.65;6.18;;;;;;;11.92;96.43;102232.97;5090435;28;20405;-71
2022/01/01 05:07:56;;;;;;;17.55;5.93;;;;;;;11.95;96.38;102244.16;5089290;28;20028;-71
2022/01/01 05:10:24;;;;;;;20.58;7.50;;;;;;;11.96;96.36;102250.34;5090479;28;20035;-71
2022/01/01 05:12:49;;;;;;;20.65;5.53;;;;;;;11.97;96.28;102243.97;5090715;28;20446;-71
2022/01/01 05:15:15;;;;;;;13.13;5.40;;;;;;;11.97;96.11;102252.00;5090414;28;20111;-71
2022/01/01 05:17:40;;;;;;;16.17;6.88;;;;;;;11.96;96.00;102243.16;5081587;28;20033;-71
2022/01/01 05:20:06;;;;;;;10.60;5.60;;;;;;;11.97;95.75;102255.53;5071059;28;20029;-72
2022/01/01 05:22:31;;;;;;;14.15;6.25;;;;;;;11.97;95.74;102260.88;5070906;28;20464;-72
2022/01/01 05:24:59;;;;;;;12.52;6.10;;;;;;;11.97;95.70;102262.69;5070871;28;20028;-71
2022/01/01 05:27:31;;;;;;;14.43;5.93;;;;;;;11.97;95.80;102268.03;5089938;28;20410;-71
2022/01/01 05:29:56;;;;;;;;;;;;;;;12.00;96.47;102265.06;5071374;28;20024;-71
2022/01/01 05:32:22;;;;;;;14.25;5.07;;;;;;;11.96;95.72;102258.38;5070692;28;19919;-71
2022/01/01 05:34:47;;;;;;;13.02;6.03;;;;;;;11.96;95.66;102258.38;5070802;28;20020;-72
2022/01/01 05:37:13;;;;;;;16.85;5.57;;;;;;;11.94;95.67;102253.19;5070732;28;20165;-72
2022/01/01 05:39:38;;;;;;;12.15;6.07;;;;;;;11.93;95.81;102251.50;5070732;28;20032;-72
2022/01/01 05:42:03;;;;;;;16.25;6.65;;;;;;;11.93;95.67;102248.84;5070540;28;20029;-72
2022/01/01 05:44:29;;;;;;;14.75;5.85;;;;;;;11.93;95.55;102256.03;5069965;28;20182;-72
2022/01/01 05:46:54;;;;;;;19.23;6.10;;;;;;;11.86;95.75;102245.19;5070465;28;20028;-72
2022/01/01 05:49:21;;;;;;;18.42;4.63;;;;;;;11.91;95.68;102255.38;5070565;28;20025;-71
2022/01/01 05:51:46;;;;;;;13.20;5.25;;;;;;;11.91;95.49;102260.72;5070540;28;20491;-71
2022/01/01 05:54:12;;;;;;;15.32;6.68;;;;;;;11.90;95.58;102259.06;5080341;28;20126;-72
2022/01/01 05:56:37;;;;;;;34.97;7.10;;;;;;;11.88;95.52;102259.22;5089658;28;20372;-71
2022/01/01 05:59:03;;;;;;;16.73;5.75;;;;;;;11.89;95.30;102258.19;5089663;28;20101;-72
2022/01/01 06:01:28;;;;;;;12.75;5.85;;;;;;;11.90;95.40;102251.03;5089751;28;20043;-71
2022/01/01 06:03:53;;;;;;;15.07;6.38;;;;;;;11.89;95.41;102250.19;5089961;28;20046;-72
2022/01/01 06:06:19;;;;;;;12.80;5.35;;;;;;;11.88;95.32;102253.03;5089574;28;20492;-72
2022/01/01 06:08:44;;;;;;;15.95;5.63;;;;;;;11.87;95.34;102243.34;5089728;28;20036;-71
2022/01/01 06:11:10;;;;;;;19.58;6.43;;;;;;;11.83;95.29;102249.00;5089119;28;20024;-72
2022/01/01 06:13:35;;;;;;;14.68;7.00;;;;;;;11.83;95.10;102250.84;5088124;28;20032;-71
2022/01/01 06:16:01;;;;;;;13.90;5.90;;;;;;;11.83;95.22;102234.78;5089278;28;20474;-71
2022/01/01 06:18:26;;;;;;;12.27;4.82;;;;;;;11.79;94.92;102237.00;5089236;28;20390;-71
2022/01/01 06:20:51;;;;;;;12.48;5.57;;;;;;;11.75;94.93;102237.50;5089574;28;20032;-71
2022/01/01 06:23:17;;;;;;;12.93;4.88;;;;;;;11.69;94.99;102230.16;5089486;28;20135;-72
2022/01/01 06:25:42;;;;;;;15.25;5.75;;;;;;;11.62;95.15;102230.00;5085408;28;20063;-71
2022/01/01 06:28:08;;;;;;;11.32;5.22;;;;;;;11.56;95.05;102239.53;5089260;28;20032;-72
2022/01/01 06:30:36;;;;;;;14.05;5.47;;;;;;;11.56;95.59;102247.53;5070913;28;20020;-72
2022/01/01 06:33:17;;;;;;;18.55;4.97;;;;;;;11.58;95.31;102240.19;5077656;28;20025;-71
2022/01/01 06:35:43;;;;;;;10.15;5.03;;;;;;;11.59;95.39;102246.38;5089306;28;20031;-72
2022/01/01 06:38:09;;;;;;;11.07;5.78;;;;;;;11.61;95.37;102253.22;5089270;28;20103;-71
2022/01/01 06:40:36;;;;;;;21.02;5.35;;;;;;;11.56;95.12;102244.88;5089204;28;20058;-71
2022/01/01 06:43:02;;;;;;;9.88;4.57;;;;;;;11.62;95.01;102251.38;5069416;28;20392;-72
2022/01/01 06:45:28;;;;;;;13.38;5.80;;;;;;;11.59;94.32;102251.72;5088988;28;20036;-72
2022/01/01 06:47:53;;;;;;;8.45;3.95;;;;;;;11.53;94.79;102271.09;5089292;28;20024;-71
2022/01/01 06:50:18;;;;;;;13.68;4.68;;;;;;;11.37;94.76;102250.53;5085217;28;20044;-72
2022/01/01 06:52:45;;;;;;;8.98;3.72;;;;;;;11.41;94.88;102262.56;5071160;28;20033;-71
2022/01/01 06:55:12;;;;;;;11.65;3.60;;;;;;;11.34;94.82;102253.56;5087705;28;20032;-72
2022/01/01 06:57:39;;;;;;;13.80;4.25;;;;;;;11.29;95.11;102263.91;5088994;28;20119;-71
2022/01/01 07:00:05;;;;;;;11.73;4.35;;;;;;;11.22;95.04;102258.41;5089040;28;20499;-71
2022/01/01 07:02:30;;;;;;;16.80;4.85;;;;;;;11.22;95.24;102261.06;5088633;28;20066;-71
2022/01/01 07:04:55;;;;;;;10.63;5.20;;;;;;;11.24;95.38;102258.22;5088876;28;20107;-72
2022/01/01 07:07:21;;;;;;;15.23;4.72;;;;;;;11.23;95.25;102265.41;5087660;28;20032;-71
2022/01/01 07:09:46;;;;;;;14.73;4.93;;;;;;;11.24;95.24;102269.78;5087509;28;20039;-72
2022/01/01 07:12:11;;;;;;;13.13;5.28;;;;;;;11.22;95.05;102268.25;5089055;28;20818;-72
2022/01/01 07:14:37;;;;;;;13.55;4.45;;;;;;;11.23;95.26;102273.41;5087638;28;20038;-71
2022/01/01 07:17:02;;;;;;;12.77;4.53;;;;;;;11.21;95.43;102277.25;5088727;28;20060;-72
2022/01/01 07:19:28;;;;;;;16.20;5.57;;;;;;;11.18;95.34;102279.25;5070480;28;20040;-71
2022/01/01 07:21:55;;;;;;;13.68;3.85;;;;;;;11.21;95.63;102290.59;5069556;28;20025;-72
2022/01/01 07:24:21;;;;;;;15.88;5.05;;;;;;;11.23;95.60;102288.63;5091505;28;20063;-71
2022/01/01 07:26:46;;;;;;;11.35;3.72;;;;;;;11.28;95.28;102289.78;5090837;28;20475;-72
2022/01/01 07:29:12;;;;;;;11.93;4.03;;;;;;;11.29;95.15;102282.59;5092646;28;20044;-72
2022/01/01 07:31:37;;;;;;;13.52;4.15;;;;;;;11.38;94.89;102293.13;5075367;28;20036;-71
2022/01/01 07:34:02;;;;;;;11.63;4.10;;;;;;;11.40;94.46;102274.28;5091011;28;20132;-72
2022/01/01 07:36:28;;;;;;;11.38;4.93;;;;;;;11.42;94.33;102285.59;5081181;28;20693;-71
2022/01/01 07:38:53;;;;;;;7.72;3.47;;;;;;;11.43;94.34;102284.63;5073021;28;20032;-72
2022/01/01 07:41:18;;;;;;;8.10;3.65;;;;;;;11.43;94.53;102295.31;5073038;28;20025;-71
2022/01/01 07:43:44;;;;;;;8.05;3.97;;;;;;;11.45;94.27;102292.44;5074111;28;20047;-72
2022/01/01 07:46:09;;;;;;;12.95;3.72;;;;;;;11.47;93.97;102290.47;5092240;28;20115;-72
2022/01/01 07:48:34;;;;;;;13.27;3.78;;;;;;;11.48;93.97;102292.16;5092414;28;20032;-72
2022/01/01 07:51:00;;;;;;;9.23;4.28;;;;;;;11.48;93.78;102292.97;5092596;28;20028;-72
2022/01/01 07:53:25;;;;;;;15.07;4.35;;;;;;;11.48;93.87;102292.16;5092074;28;20028;-72
2022/01/01 07:55:51;;;;;;;12.98;3.75;;;;;;;11.52;93.73;102291.63;5078992;28;20116;-72
2022/01/01 07:58:16;;;;;;;12.35;4.60;;;;;;;11.53;93.71;102295.16;5072851;28;20028;-72
2022/01/01 08:00:41;;;;;;;11.10;4.43;;;;;;;11.55;93.55;102303.81;5078504;28;20055;-72
2022/01/01 08:03:10;;;;;;;12.32;4.20;;;;;;;11.56;93.57;102303.66;5092080;28;20122;-72
2022/01/01 08:05:35;;;;;;;13.90;5.03;;;;;;;11.58;93.07;102314.16;5087105;28;20119;-72
2022/01/01 08:08:00;;;;;;;9.52;4.20;;;;;;;11.59;93.23;102306.00;5089045;28;20122;-72
2022/01/01 08:10:26;;;;;;;12.68;4.95;;;;;;;11.61;93.28;102317.34;5087838;28;20120;-72
2022/01/01 08:12:51;;;;;;;15.43;4.75;;;;;;;11.63;93.10;102319.84;5072492;28;20032;-72
2022/01/01 08:15:17;;;;;;;16.75;5.57;;;;;;;11.63;93.38;102310.00;5072440;28;20549;-71
2022/01/01 08:17:42;;;;;;;15.02;4.05;;;;;;;11.65;93.02;102319.69;5073369;28;20052;-71
2022/01/01 08:20:08;;;;;;;12.73;4.15;;;;;;;11.66;92.79;102316.00;5085598;28;20115;-71
2022/01/01 08:22:34;;;;;;;10.35;4.85;;;;;;;11.65;92.75;102312.50;5091714;28;20056;-71
2022/01/01 08:25:01;;;;;;;11.77;4.22;;;;;;;11.66;93.04;102311.50;5084879;28;20032;-71
2022/01/01 08:27:26;;;;;;;16.83;5.38;;;;;;;11.67;92.70;102301.66;5089893;28;20575;-71
2022/01/01 08:29:51;;;;;;;13.27;4.53;;;;;;;11.66;92.96;102300.81;5090227;28;20024;-71
2022/01/01 08:32:17;;;;;;;10.25;4.43;;;;;;;11.62;92.30;102288.78;5091546;28;20406;-71
2022/01/01 08:34:42;;;;;;;9.90;3.92;;;;;;;11.69;92.23;102303.16;5082251;28;20082;-72
2022/01/01 08:37:07;;;;;;;12.80;5.25;;;;;;;11.69;92.29;102302.31;5071999;28;20090;-71
2022/01/01 08:39:33;;;;;;;12.27;5.53;;;;;;;11.68;92.41;102285.44;5070523;28;20062;-71
2022/01/01 08:41:59;;;;;;;14.15;4.53;;;;;;;11.69;92.30;102292.47;5090945;28;20024;-71
2022/01/01 08:44:25;;;;;;;8.32;3.75;;;;;;;11.74;92.15;102302.66;5089537;28;20364;-71
2022/01/01 08:46:51;;;;;;;14.75;4.75;;;;;;;11.76;92.09;102297.97;5091173;28;20482;-71
2022/01/01 08:49:16;;;;;;;11.48;4.22;;;;;;;11.79;92.22;102294.97;5090955;28;20074;-71
2022/01/01 08:51:44;;;;;;;16.88;4.63;;;;;;;11.76;91.84;102301.50;5091138;28;20036;-71
2022/01/01 08:54:11;;;;;;;12.82;4.70;;;;;;;11.82;91.67;102305.31;5075529;28;20059;-71
2022/01/01 08:56:37;;;;;;;7.57;4.07;;;;;;;11.81;91.80;102307.13;5091070;28;20106;-71
2022/01/01 08:59:02;;;;;;;7.22;3.38;;;;;;;11.82;91.42;102308.00;5089746;28;20111;-71
2022/01/01 09:01:28;;;;;;;13.73;4.30;;;;;;;11.82;91.88;102310.66;5090890;28;20040;-72
2022/01/01 09:03:53;;;;;;;9.98;3.50;;;;;;;11.80;91.85;102310.81;5090856;28;20032;-71
2022/01/01 09:06:19;;;;;;;8.80;3.38;;;;;;;11.80;91.97;102315.34;5071474;28;20036;-71
2022/01/01 09:08:44;;;;;;;12.85;5.03;;;;;;;11.76;91.74;102295.28;5071033;28;20028;-71
2022/01/01 09:11:12;;;;;;;13.38;4.63;;;;;;;11.77;91.75;102296.97;5068918;28;20024;-71
2022/01/01 09:13:41;;;;;;;8.07;3.78;;;;;;;11.75;91.62;102297.13;5088888;28;20028;-71
2022/01/01 09:16:10;;;;;;;9.93;4.63;;;;;;;11.69;91.63;102289.78;5090250;28;20933;-71
2022/01/01 09:18:36;;;;;;;10.80;4.63;;;;;;;11.77;91.79;102294.28;5090331;28;20020;-71
2022/01/01 09:21:01;;;;;;;16.52;4.95;;;;;;;11.78;91.67;102294.09;5071089;28;20074;-71
2022/01/01 09:23:27;;;;;;;11.98;3.63;;;;;;;11.80;91.45;102291.28;5070973;28;20125;-71
2022/01/01 09:25:52;;;;;;;10.45;4.30;;;;;;;11.81;91.44;102292.94;5069674;28;20044;-71
2022/01/01 09:28:17;;;;;;;5.78;3.47;;;;;;;11.77;91.68;102297.78;5070946;28;20131;-71
2022/01/01 09:30:43;;;;;;;10.20;4.18;;;;;;;11.80;91.68;102292.09;5077463;28;20487;-71
2022/01/01 09:33:10;;;;;;;17.67;6.32;;;;;;;11.81;91.41;102293.75;5089178;28;20097;-74
2022/01/01 09:35:35;;;;;;;8.13;3.20;;;;;;;11.84;91.39;102304.16;5082905;28;20501;-73
2022/01/01 09:38:00;;;;;;;9.80;4.15;;;;;;;11.83;91.52;102290.94;5074239;28;20101;-72
2022/01/01 09:40:26;;;;;;;10.93;4.05;;;;;;;11.89;91.38;102295.63;5074102;28;20036;-71
2022/01/01 09:42:52;;;;;;;12.30;4.30;;;;;;;11.91;91.55;102287.44;5074945;28;20031;-72
2022/01/01 09:45:19;;;;;;;12.70;3.70;;;;;;;11.94;91.84;102284.44;5075010;28;20016;-71
2022/01/01 09:47:46;;;;;;;12.38;4.20;;;;;;;11.95;91.19;102281.59;5073109;28;20060;-71
2022/01/01 09:50:11;;;;;;;8.90;4.68;;;;;;;11.99;91.16;102295.44;5074768;28;20036;-72
2022/01/01 09:52:37;;;;;;;11.82;6.65;;;;;;;12.02;90.73;102293.25;5074127;28;20028;-72
2022/01/01 09:55:03;;;;;;;8.02;4.40;;;;;;;12.02;90.68;102285.25;5074024;28;20038;-71
2022/01/01 09:57:28;;;;;;;11.68;3.28;;;;;;;12.03;90.89;102289.59;5074889;28;20020;-72
2022/01/01 09:59:54;;;;;;;9.73;4.57;;;;;;;12.00;90.76;102283.78;5074248;28;20028;-71
2022/01/01 10:02:19;;;;;;;10.75;3.88;;;;;;;12.03;90.98;102280.75;5073762;28;20108;-73
2022/01/01 10:04:52;;;;;;;18.13;4.80;;;;;;;12.06;90.75;102291.94;5074490;28;20046;-72
2022/01/01 10:07:26;;;;;;;13.23;4.72;;;;;;;12.07;90.82;102290.91;5073927;28;20016;-72
2022/01/01 10:09:51;;;;;;;9.60;3.70;;;;;;;12.04;90.80;102288.59;5073961;28;20181;-71
2022/01/01 10:12:18;;;;;;;12.45;5.10;;;;;;;12.06;90.83;102291.94;5074020;28;20153;-71
2022/01/01 10:14:48;;;;;;;12.00;4.50;;;;;;;12.10;90.72;102287.06;5073375;28;20628;-71
2022/01/01 10:17:19;;;;;;;8.15;3.80;;;;;;;12.15;91.11;102268.66;5073513;28;20536;-71
2022/01/01 10:19:46;;;;;;;9.10;4.20;;;;;;;12.20;90.89;102260.13;5074131;28;20137;-71
2022/01/01 10:22:15;;;;;;;13.27;4.28;;;;;;;12.22;90.91;102250.91;5073453;28;20103;-71
2022/01/01 10:27:47;;;;;;;13.43;4.75;;;;;;;12.36;90.25;102245.84;5073133;28;20063;-71
2022/01/01 10:30:17;;;;;;;15.05;5.72;;;;;;;12.39;89.80;102242.81;5074673;28;20116;-71
2022/01/01 10:33:05;;;;;;;11.85;3.88;;;;;;;12.42;90.45;102248.69;5074038;28;20643;-71
2022/01/01 10:35:36;;;;;;;11.82;5.00;;;;;;;12.43;89.92;102244.97;5073780;28;20033;-74
2022/01/01 10:38:22;;;;;;;11.80;4.20;;;;;;;12.44;90.14;102233.28;5073881;28;20016;-73
2022/01/01 10:40:48;;;;;;;9.40;4.38;;;;;;;12.44;89.12;102227.06;5072405;28;20024;-73
2022/01/01 10:43:17;;;;;;;11.88;4.28;;;;;;;12.43;89.22;102228.09;5072538;28;20479;-74
2022/01/01 10:45:47;;;;;;;7.75;3.30;;;;;;;12.43;89.49;102231.59;5073212;28;20040;-74
2022/01/01 10:48:21;;;;;;;13.25;4.13;;;;;;;12.47;89.39;102227.56;5073798;28;20024;-73
2022/01/01 10:50:48;;;;;;;8.57;3.40;;;;;;;12.55;89.31;102223.16;5073512;28;20351;-73
2022/01/01 10:53:16;;;;;;;10.48;3.75;;;;;;;12.60;89.42;102229.69;5073073;28;20078;-72
2022/01/01 10:55:43;;;;;;;12.63;4.25;;;;;;;12.63;88.71;102215.94;5073848;28;20032;-74
2022/01/01 10:58:09;;;;;;;8.45;4.45;;;;;;;12.72;89.27;102222.91;5075423;28;20488;-74
2022/01/01 11:00:41;;;;;;;7.38;4.22;;;;;;;12.78;89.05;102216.00;5077928;28;20020;-72
2022/01/01 11:03:15;;;;;;;8.48;3.72;;;;;;;12.84;88.82;102204.59;5077758;28;21346;-73
2022/01/01 11:05:41;;;;;;;10.07;3.92;;;;;;;12.86;88.52;102215.13;5076840;28;20127;-73
2022/01/01 11:08:08;;;;;;;9.48;4.85;;;;;;;12.89;88.33;102214.75;5077715;28;20063;-74
2022/01/01 11:10:35;;;;;;;8.23;3.20;;;;;;;12.87;88.06;102200.72;5077831;28;20065;-71
2022/01/01 11:13:02;;;;;;;8.20;3.63;;;;;;;12.94;88.78;102209.69;5076730;28;20062;-73
2022/01/01 11:15:28;;;;;;;8.50;4.70;;;;;;;12.96;87.66;102202.31;5076670;28;20016;-74
2022/01/01 11:17:58;;;;;;;9.05;3.30;;;;;;;12.88;87.46;102189.00;5077857;28;20048;-74